sensor_id;sensor_type;location;lat;lon;timestamp;pressure;altitude;pressure_sealevel;temperature;humidity
4814;BME280;15375;48.540;9.268;2022-08-19T00:00:38;96908.78;;;20.56;100.00
4814;BME280;15375;48.540;9.268;2022-08-19T00:03:05;96930.25;;;20.29;100.00
4814;BME280;15375;48.540;9.268;2022-08-19T00:05:32;96933.63;;;19.88;100.00
4814;BME280;15375;48.540;9.268;2022-08-19T00:07:57;96931.19;;;19.95;100.00
4814;BME280;15375;48.540;9.268;2022-08-19T00:10:23;96936.69;;;20.21;100.00
4814;BME280;15375;48.540;9.268;2022-08-19T00:12:50;96936.94;;;20.49;100.00
4814;BME280;15375;48.540;9.268;2022-08-19T00:15:17;96930.44;;;20.99;100.00
4814;BME280;15375;48.540;9.268;2022-08-19T00:17:44;96932.97;;;20.97;100.00
4814;BME280;15375;48.540;9.268;2022-08-19T00:20:12;96912.91;;;20.71;100.00
4814;BME280;15375;48.540;9.268;2022-08-19T00:22:38;96901.47;;;21.00;100.00
4814;BME280;15375;48.540;9.268;2022-08-19T00:25:07;96909.44;;;21.30;100.00
4814;BME280;15375;48.540;9.268;2022-08-19T00:27:33;96902.16;;;21.38;100.00
4814;BME280;15375;48.540;9.268;2022-08-19T00:29:58;96893.91;;;21.66;100.00
4814;BME280;15375;48.540;9.268;2022-08-19T00:32:24;96889.56;;;21.37;100.00
4814;BME280;15375;48.540;9.268;2022-08-19T00:34:50;96887.16;;;21.08;100.00
4814;BME280;15375;48.540;9.268;2022-08-19T00:37:18;96889.41;;;21.04;100.00
4814;BME280;15375;48.540;9.268;2022-08-19T00:39:43;96889.88;;;21.02;100.00
4814;BME280;15375;48.540;9.268;2022-08-19T00:42:09;96909.19;;;20.43;100.00
4814;BME280;15375;48.540;9.268;2022-08-19T00:44:34;96909.81;;;19.96;100.00
4814;BME280;15375;48.540;9.268;2022-08-19T00:47:00;96895.91;;;19.90;100.00
4814;BME280;15375;48.540;9.268;2022-08-19T00:49:36;96924.66;;;20.55;100.00
4814;BME280;15375;48.540;9.268;2022-08-19T00:52:04;96929.03;;;20.73;100.00
4814;BME280;15375;48.540;9.268;2022-08-19T00:54:32;96931.28;;;20.06;100.00
4814;BME280;15375;48.540;9.268;2022-08-19T00:56:59;96908.03;;;19.47;100.00
4814;BME280;15375;48.540;9.268;2022-08-19T00:59:27;96914.88;;;19.31;100.00
4814;BME280;15375;48.540;9.268;2022-08-19T01:01:54;96884.03;;;19.58;100.00
4814;BME280;15375;48.540;9.268;2022-08-19T01:04:19;96904.94;;;20.16;100.00
4814;BME280;15375;48.540;9.268;2022-08-19T01:06:45;96911.19;;;20.79;100.00
4814;BME280;15375;48.540;9.268;2022-08-19T01:09:10;96891.34;;;20.86;100.00
4814;BME280;15375;48.540;9.268;2022-08-19T01:11:39;96909.00;;;20.21;100.00
4814;BME280;15375;48.540;9.268;2022-08-19T01:14:06;96906.63;;;20.08;100.00
4814;BME280;15375;48.540;9.268;2022-08-19T01:16:33;96898.84;;;20.38;100.00
4814;BME280;15375;48.540;9.268;2022-08-19T01:19:18;96894.72;;;20.59;100.00
4814;BME280;15375;48.540;9.268;2022-08-19T01:21:52;96877.19;;;20.84;100.00
4814;BME280;15375;48.540;9.268;2022-08-19T01:24:20;96881.75;;;20.87;100.00
4814;BME280;15375;48.540;9.268;2022-08-19T01:26:46;96883.53;;;20.48;100.00
4814;BME280;15375;48.540;9.268;2022-08-19T01:29:12;96883.75;;;20.45;100.00
4814;BME280;15375;48.540;9.268;2022-08-19T01:31:39;96905.63;;;20.37;100.00
4814;BME280;15375;48.540;9.268;2022-08-19T01:34:05;96906.53;;;20.23;100.00
4814;BME280;15375;48.540;9.268;2022-08-19T01:36:39;96912.44;;;20.10;100.00
4814;BME280;15375;48.540;9.268;2022-08-19T01:39:10;96916.41;;;20.04;100.00
4814;BME280;15375;48.540;9.268;2022-08-19T01:41:36;96894.22;;;19.98;100.00
4814;BME280;15375;48.540;9.268;2022-08-19T01:44:03;96905.69;;;20.17;100.00
4814;BME280;15375;48.540;9.268;2022-08-19T01:46:30;96911.72;;;20.15;100.00
4814;BME280;15375;48.540;9.268;2022-08-19T01:48:56;96902.41;;;20.13;100.00
4814;BME280;15375;48.540;9.268;2022-08-19T01:51:21;96869.69;;;20.17;100.00
4814;BME280;15375;48.540;9.268;2022-08-19T01:53:49;96889.91;;;20.23;100.00
4814;BME280;15375;48.540;9.268;2022-08-19T01:56:15;96900.31;;;20.33;100.00
4814;BME280;15375;48.540;9.268;2022-08-19T01:58:45;96889.19;;;20.65;100.00
4814;BME280;15375;48.540;9.268;2022-08-19T02:01:16;96879.66;;;20.77;100.00
4814;BME280;15375;48.540;9.268;2022-08-19T02:03:41;96896.75;;;20.64;100.00
4814;BME280;15375;48.540;9.268;2022-08-19T02:06:07;96889.91;;;20.60;100.00
4814;BME280;15375;48.540;9.268;2022-08-19T02:08:35;96880.25;;;20.44;100.00
4814;BME280;15375;48.540;9.268;2022-08-19T02:11:02;96879.78;;;20.51;100.00
4814;BME280;15375;48.540;9.268;2022-08-19T02:13:27;96888.31;;;20.48;100.00
4814;BME280;15375;48.540;9.268;2022-08-19T02:15:53;96889.31;;;20.45;100.00
4814;BME280;15375;48.540;9.268;2022-08-19T02:18:18;96886.63;;;20.56;100.00
4814;BME280;15375;48.540;9.268;2022-08-19T02:20:45;96898.28;;;20.03;100.00
4814;BME280;15375;48.540;9.268;2022-08-19T02:23:12;96892.75;;;19.77;100.00
4814;BME280;15375;48.540;9.268;2022-08-19T02:25:38;96904.84;;;19.80;100.00
4814;BME280;15375;48.540;9.268;2022-08-19T02:28:04;96901.38;;;19.85;100.00
4814;BME280;15375;48.540;9.268;2022-08-19T02:30:30;96893.63;;;19.89;100.00
4814;BME280;15375;48.540;9.268;2022-08-19T02:32:55;96881.38;;;19.69;100.00
4814;BME280;15375;48.540;9.268;2022-08-19T02:35:21;96889.06;;;19.60;100.00
4814;BME280;15375;48.540;9.268;2022-08-19T02:37:47;96871.59;;;19.74;100.00
4814;BME280;15375;48.540;9.268;2022-08-19T02:40:32;96887.53;;;19.85;100.00
4814;BME280;15375;48.540;9.268;2022-08-19T02:43:00;96879.63;;;19.98;100.00
4814;BME280;15375;48.540;9.268;2022-08-19T02:45:26;96873.56;;;19.94;100.00
4814;BME280;15375;48.540;9.268;2022-08-19T02:47:51;96873.75;;;19.90;100.00
4814;BME280;15375;48.540;9.268;2022-08-19T02:50:16;96875.09;;;20.26;100.00
4814;BME280;15375;48.540;9.268;2022-08-19T02:52:42;96872.91;;;20.10;100.00
4814;BME280;15375;48.540;9.268;2022-08-19T02:55:08;96872.22;;;19.89;100.00
4814;BME280;15375;48.540;9.268;2022-08-19T02:57:33;96880.94;;;19.77;100.00
4814;BME280;15375;48.540;9.268;2022-08-19T02:59:59;96892.22;;;19.73;100.00
4814;BME280;15375;48.540;9.268;2022-08-19T03:02:25;96876.38;;;19.48;100.00
4814;BME280;15375;48.540;9.268;2022-08-19T03:04:50;96884.56;;;19.37;100.00
4814;BME280;15375;48.540;9.268;2022-08-19T03:07:17;96902.97;;;19.65;100.00
4814;BME280;15375;48.540;9.268;2022-08-19T03:09:43;96919.78;;;19.88;100.00
4814;BME280;15375;48.540;9.268;2022-08-19T03:12:09;96898.09;;;19.35;100.00
4814;BME280;15375;48.540;9.268;2022-08-19T03:14:36;96897.97;;;19.69;100.00
4814;BME280;15375;48.540;9.268;2022-08-19T03:17:02;96900.91;;;19.86;100.00
4814;BME280;15375;48.540;9.268;2022-08-19T03:19:29;96885.91;;;19.47;100.00
4814;BME280;15375;48.540;9.268;2022-08-19T03:21:56;96884.00;;;19.79;100.00
4814;BME280;15375;48.540;9.268;2022-08-19T03:24:22;96895.78;;;19.79;100.00
4814;BME280;15375;48.540;9.268;2022-08-19T03:26:51;96908.44;;;20.11;100.00
4814;BME280;15375;48.540;9.268;2022-08-19T03:29:18;96870.94;;;20.47;100.00
4814;BME280;15375;48.540;9.268;2022-08-19T03:31:45;96880.94;;;20.76;100.00
4814;BME280;15375;48.540;9.268;2022-08-19T03:34:12;96885.53;;;20.90;100.00
4814;BME280;15375;48.540;9.268;2022-08-19T03:36:38;96895.16;;;21.00;100.00
4814;BME280;15375;48.540;9.268;2022-08-19T03:39:04;96888.03;;;20.82;100.00
4814;BME280;15375;48.540;9.268;2022-08-19T03:41:32;96892.97;;;20.62;100.00
4814;BME280;15375;48.540;9.268;2022-08-19T03:43:58;96902.22;;;20.53;100.00
4814;BME280;15375;48.540;9.268;2022-08-19T03:46:30;96903.34;;;20.35;100.00
4814;BME280;15375;48.540;9.268;2022-08-19T03:48:57;96890.19;;;20.67;100.00
4814;BME280;15375;48.540;9.268;2022-08-19T03:51:30;96907.88;;;21.18;100.00
4814;BME280;15375;48.540;9.268;2022-08-19T03:53:57;96903.06;;;21.13;100.00
4814;BME280;15375;48.540;9.268;2022-08-19T03:56:23;96907.38;;;20.77;100.00
4814;BME280;15375;48.540;9.268;2022-08-19T03:58:51;96918.00;;;20.42;100.00
4814;BME280;15375;48.540;9.268;2022-08-19T04:01:21;96918.94;;;20.33;100.00
4814;BME280;15375;48.540;9.268;2022-08-19T04:03:48;96902.00;;;20.57;100.00
4814;BME280;15375;48.540;9.268;2022-08-19T04:06:15;96906.91;;;20.78;100.00
4814;BME280;15375;48.540;9.268;2022-08-19T04:08:41;96905.50;;;20.94;100.00
4814;BME280;15375;48.540;9.268;2022-08-19T04:11:20;96903.16;;;21.29;100.00
4814;BME280;15375;48.540;9.268;2022-08-19T04:13:47;96904.47;;;21.56;100.00
4814;BME280;15375;48.540;9.268;2022-08-19T04:16:13;96891.34;;;21.51;100.00
4814;BME280;15375;48.540;9.268;2022-08-19T04:18:39;96900.88;;;21.33;100.00
4814;BME280;15375;48.540;9.268;2022-08-19T04:21:06;96897.78;;;21.15;100.00
4814;BME280;15375;48.540;9.268;2022-08-19T04:23:33;96901.72;;;21.02;100.00
4814;BME280;15375;48.540;9.268;2022-08-19T04:25:59;96878.44;;;20.35;100.00
4814;BME280;15375;48.540;9.268;2022-08-19T04:28:25;96898.81;;;20.07;100.00
4814;BME280;15375;48.540;9.268;2022-08-19T04:30:53;96877.63;;;19.72;100.00
4814;BME280;15375;48.540;9.268;2022-08-19T04:33:21;96882.25;;;19.35;100.00
4814;BME280;15375;48.540;9.268;2022-08-19T04:35:50;96901.91;;;19.37;100.00
4814;BME280;15375;48.540;9.268;2022-08-19T04:38:19;96890.06;;;19.17;100.00
4814;BME280;15375;48.540;9.268;2022-08-19T04:40:47;96904.38;;;19.15;100.00
4814;BME280;15375;48.540;9.268;2022-08-19T04:43:32;96896.03;;;19.09;100.00
4814;BME280;15375;48.540;9.268;2022-08-19T04:45:58;96893.25;;;19.09;100.00
4814;BME280;15375;48.540;9.268;2022-08-19T04:48:24;96909.56;;;19.48;100.00
4814;BME280;15375;48.540;9.268;2022-08-19T04:50:56;96882.00;;;19.59;100.00
4814;BME280;15375;48.540;9.268;2022-08-19T04:53:30;96908.59;;;19.77;100.00
4814;BME280;15375;48.540;9.268;2022-08-19T04:55:57;96917.09;;;19.47;100.00
4814;BME280;15375;48.540;9.268;2022-08-19T04:58:26;96899.66;;;19.21;100.00
4814;BME280;15375;48.540;9.268;2022-08-19T05:00:51;96927.28;;;19.16;100.00
4814;BME280;15375;48.540;9.268;2022-08-19T05:03:17;96902.59;;;18.92;100.00
4814;BME280;15375;48.540;9.268;2022-08-19T05:05:44;96930.03;;;19.16;100.00
4814;BME280;15375;48.540;9.268;2022-08-19T05:08:16;96945.28;;;19.11;100.00
4814;BME280;15375;48.540;9.268;2022-08-19T05:10:47;96949.66;;;18.97;100.00
4814;BME280;15375;48.540;9.268;2022-08-19T05:13:14;96949.28;;;18.90;100.00
4814;BME280;15375;48.540;9.268;2022-08-19T05:15:41;96938.66;;;18.83;100.00
4814;BME280;15375;48.540;9.268;2022-08-19T05:18:07;96960.38;;;19.10;100.00
4814;BME280;15375;48.540;9.268;2022-08-19T05:20:50;96968.16;;;19.11;100.00
4814;BME280;15375;48.540;9.268;2022-08-19T05:23:34;96975.84;;;19.22;100.00
4814;BME280;15375;48.540;9.268;2022-08-19T05:26:00;96996.06;;;19.28;100.00
4814;BME280;15375;48.540;9.268;2022-08-19T05:28:25;96989.84;;;19.33;100.00
4814;BME280;15375;48.540;9.268;2022-08-19T05:30:51;96982.19;;;19.43;100.00
4814;BME280;15375;48.540;9.268;2022-08-19T05:33:18;96994.13;;;19.54;100.00
4814;BME280;15375;48.540;9.268;2022-08-19T05:35:43;96994.63;;;19.53;100.00
4814;BME280;15375;48.540;9.268;2022-08-19T05:38:09;96987.78;;;19.48;100.00
4814;BME280;15375;48.540;9.268;2022-08-19T05:40:38;96998.28;;;19.64;100.00
4814;BME280;15375;48.540;9.268;2022-08-19T05:43:06;97004.06;;;19.66;100.00
4814;BME280;15375;48.540;9.268;2022-08-19T05:45:32;96997.31;;;19.47;100.00
4814;BME280;15375;48.540;9.268;2022-08-19T05:47:58;96990.66;;;19.59;100.00
4814;BME280;15375;48.540;9.268;2022-08-19T05:50:24;96994.19;;;19.60;100.00
4814;BME280;15375;48.540;9.268;2022-08-19T05:52:52;96996.97;;;19.60;100.00
4814;BME280;15375;48.540;9.268;2022-08-19T05:55:17;96987.69;;;19.63;100.00
4814;BME280;15375;48.540;9.268;2022-08-19T05:57:45;97005.41;;;19.71;100.00
4814;BME280;15375;48.540;9.268;2022-08-19T06:00:11;96992.94;;;19.81;100.00
4814;BME280;15375;48.540;9.268;2022-08-19T06:02:38;96990.38;;;19.78;100.00
4814;BME280;15375;48.540;9.268;2022-08-19T06:05:04;96995.09;;;19.71;100.00
4814;BME280;15375;48.540;9.268;2022-08-19T06:07:32;96996.13;;;19.54;100.00
4814;BME280;15375;48.540;9.268;2022-08-19T06:09:58;96995.94;;;19.57;100.00
4814;BME280;15375;48.540;9.268;2022-08-19T06:12:23;96981.84;;;19.55;100.00
4814;BME280;15375;48.540;9.268;2022-08-19T06:14:54;96986.94;;;19.62;100.00
4814;BME280;15375;48.540;9.268;2022-08-19T06:17:20;97001.38;;;19.72;100.00
4814;BME280;15375;48.540;9.268;2022-08-19T06:19:47;96992.38;;;19.77;100.00
4814;BME280;15375;48.540;9.268;2022-08-19T06:22:15;96980.84;;;20.04;100.00
4814;BME280;15375;48.540;9.268;2022-08-19T06:24:41;96984.13;;;20.28;100.00
4814;BME280;15375;48.540;9.268;2022-08-19T06:27:06;96981.72;;;20.42;100.00
4814;BME280;15375;48.540;9.268;2022-08-19T06:29:32;96996.88;;;20.46;100.00
4814;BME280;15375;48.540;9.268;2022-08-19T06:32:00;97007.72;;;20.50;100.00
4814;BME280;15375;48.540;9.268;2022-08-19T06:34:28;97009.19;;;20.45;100.00
4814;BME280;15375;48.540;9.268;2022-08-19T06:36:55;96988.72;;;20.11;100.00
4814;BME280;15375;48.540;9.268;2022-08-19T06:39:24;97011.09;;;20.08;100.00
4814;BME280;15375;48.540;9.268;2022-08-19T06:41:53;97001.91;;;19.96;100.00
4814;BME280;15375;48.540;9.268;2022-08-19T06:44:20;97005.09;;;19.89;100.00
4814;BME280;15375;48.540;9.268;2022-08-19T06:46:47;96999.19;;;19.76;100.00
4814;BME280;15375;48.540;9.268;2022-08-19T06:49:14;97019.50;;;19.93;100.00
4814;BME280;15375;48.540;9.268;2022-08-19T06:51:44;97019.00;;;19.95;100.00
4814;BME280;15375;48.540;9.268;2022-08-19T06:54:12;97014.59;;;19.83;100.00
4814;BME280;15375;48.540;9.268;2022-08-19T06:56:38;97006.31;;;19.62;100.00
4814;BME280;15375;48.540;9.268;2022-08-19T06:59:12;97005.47;;;19.56;100.00
4814;BME280;15375;48.540;9.268;2022-08-19T07:01:45;97014.09;;;19.44;100.00
4814;BME280;15375;48.540;9.268;2022-08-19T07:04:13;97013.06;;;19.41;100.00
4814;BME280;15375;48.540;9.268;2022-08-19T07:06:41;97015.66;;;19.45;100.00
4814;BME280;15375;48.540;9.268;2022-08-19T07:09:10;97027.19;;;19.63;100.00
4814;BME280;15375;48.540;9.268;2022-08-19T07:11:36;97017.59;;;20.05;100.00
4814;BME280;15375;48.540;9.268;2022-08-19T07:14:02;96997.91;;;20.23;100.00
4814;BME280;15375;48.540;9.268;2022-08-19T07:16:28;97017.50;;;20.45;100.00
4814;BME280;15375;48.540;9.268;2022-08-19T07:18:53;97030.00;;;20.35;100.00
4814;BME280;15375;48.540;9.268;2022-08-19T07:21:25;97009.19;;;19.94;100.00
4814;BME280;15375;48.540;9.268;2022-08-19T07:23:55;97007.75;;;19.78;100.00
4814;BME280;15375;48.540;9.268;2022-08-19T07:26:25;97023.44;;;19.87;100.00
4814;BME280;15375;48.540;9.268;2022-08-19T07:28:52;97021.06;;;20.00;100.00
4814;BME280;15375;48.540;9.268;2022-08-19T07:31:19;97020.41;;;20.10;100.00
4814;BME280;15375;48.540;9.268;2022-08-19T07:33:47;97010.97;;;20.22;100.00
4814;BME280;15375;48.540;9.268;2022-08-19T07:36:17;97016.91;;;20.35;100.00
4814;BME280;15375;48.540;9.268;2022-08-19T07:38:44;97011.75;;;20.23;100.00
4814;BME280;15375;48.540;9.268;2022-08-19T07:41:14;97040.00;;;20.27;100.00
4814;BME280;15375;48.540;9.268;2022-08-19T07:43:40;97039.97;;;20.01;100.00
4814;BME280;15375;48.540;9.268;2022-08-19T07:46:06;97014.75;;;19.73;100.00
4814;BME280;15375;48.540;9.268;2022-08-19T07:48:32;96998.97;;;19.59;100.00
4814;BME280;15375;48.540;9.268;2022-08-19T07:51:00;97038.81;;;19.67;100.00
4814;BME280;15375;48.540;9.268;2022-08-19T07:53:30;97030.16;;;19.60;100.00
4814;BME280;15375;48.540;9.268;2022-08-19T07:55:56;97035.34;;;19.72;100.00
4814;BME280;15375;48.540;9.268;2022-08-19T07:58:25;97033.69;;;19.81;100.00
4814;BME280;15375;48.540;9.268;2022-08-19T08:00:50;97034.13;;;19.73;100.00
4814;BME280;15375;48.540;9.268;2022-08-19T08:03:19;97046.28;;;19.61;100.00
4814;BME280;15375;48.540;9.268;2022-08-19T08:05:45;97037.00;;;19.44;100.00
4814;BME280;15375;48.540;9.268;2022-08-19T08:08:29;97026.50;;;19.48;100.00
4814;BME280;15375;48.540;9.268;2022-08-19T08:11:13;97036.03;;;19.47;100.00
4814;BME280;15375;48.540;9.268;2022-08-19T08:13:39;97036.88;;;19.73;100.00
4814;BME280;15375;48.540;9.268;2022-08-19T08:16:06;97043.63;;;19.93;100.00
4814;BME280;15375;48.540;9.268;2022-08-19T08:18:33;97043.56;;;19.87;100.00
4814;BME280;15375;48.540;9.268;2022-08-19T08:20:59;97045.09;;;19.88;100.00
4814;BME280;15375;48.540;9.268;2022-08-19T08:23:25;97048.09;;;20.10;100.00
4814;BME280;15375;48.540;9.268;2022-08-19T08:25:53;97049.44;;;20.41;100.00
4814;BME280;15375;48.540;9.268;2022-08-19T08:28:20;97051.19;;;20.38;100.00
4814;BME280;15375;48.540;9.268;2022-08-19T08:30:47;97043.84;;;20.35;100.00
4814;BME280;15375;48.540;9.268;2022-08-19T08:33:17;97050.34;;;20.58;100.00
4814;BME280;15375;48.540;9.268;2022-08-19T08:35:44;97040.63;;;20.42;100.00
4814;BME280;15375;48.540;9.268;2022-08-19T08:38:10;97041.13;;;19.95;100.00
4814;BME280;15375;48.540;9.268;2022-08-19T08:40:44;97053.47;;;19.73;100.00
4814;BME280;15375;48.540;9.268;2022-08-19T08:43:35;97052.28;;;19.40;100.00
4814;BME280;15375;48.540;9.268;2022-08-19T08:46:08;97048.34;;;19.11;100.00
4814;BME280;15375;48.540;9.268;2022-08-19T08:51:07;97031.47;;;18.75;100.00
4814;BME280;15375;48.540;9.268;2022-08-19T08:53:36;97048.25;;;19.06;100.00
4814;BME280;15375;48.540;9.268;2022-08-19T08:56:04;97052.72;;;19.03;100.00
4814;BME280;15375;48.540;9.268;2022-08-19T08:58:46;97042.00;;;18.91;100.00
4814;BME280;15375;48.540;9.268;2022-08-19T09:01:14;97048.41;;;18.82;100.00
4814;BME280;15375;48.540;9.268;2022-08-19T09:03:42;97064.22;;;18.82;100.00
4814;BME280;15375;48.540;9.268;2022-08-19T09:06:18;97051.47;;;18.70;100.00
4814;BME280;15375;48.540;9.268;2022-08-19T09:15:16;97067.28;;;18.55;100.00
4814;BME280;15375;48.540;9.268;2022-08-19T09:17:11;97061.28;;;18.85;100.00
4814;BME280;15375;48.540;9.268;2022-08-19T09:20:19;97056.22;;;18.84;100.00
4814;BME280;15375;48.540;9.268;2022-08-19T09:22:45;97061.34;;;18.91;100.00
4814;BME280;15375;48.540;9.268;2022-08-19T09:25:14;97073.66;;;18.90;100.00
4814;BME280;15375;48.540;9.268;2022-08-19T09:27:41;97075.44;;;18.78;100.00
4814;BME280;15375;48.540;9.268;2022-08-19T09:30:09;97048.63;;;18.50;100.00
4814;BME280;15375;48.540;9.268;2022-08-19T09:32:35;97070.44;;;18.62;100.00
4814;BME280;15375;48.540;9.268;2022-08-19T09:35:01;97062.09;;;18.33;100.00
4814;BME280;15375;48.540;9.268;2022-08-19T09:37:27;97076.41;;;18.46;100.00
4814;BME280;15375;48.540;9.268;2022-08-19T09:39:53;97061.53;;;18.43;100.00
4814;BME280;15375;48.540;9.268;2022-08-19T09:42:18;97069.94;;;18.64;100.00
4814;BME280;15375;48.540;9.268;2022-08-19T09:44:44;97067.00;;;18.67;100.00
4814;BME280;15375;48.540;9.268;2022-08-19T09:47:11;97063.28;;;18.56;100.00
4814;BME280;15375;48.540;9.268;2022-08-19T09:49:37;97081.94;;;18.61;100.00
4814;BME280;15375;48.540;9.268;2022-08-19T09:52:05;97082.91;;;18.72;100.00
4814;BME280;15375;48.540;9.268;2022-08-19T09:54:31;97080.59;;;18.71;100.00
4814;BME280;15375;48.540;9.268;2022-08-19T09:56:58;97079.94;;;18.76;100.00
4814;BME280;15375;48.540;9.268;2022-08-19T09:59:25;97070.69;;;18.79;100.00
4814;BME280;15375;48.540;9.268;2022-08-19T10:01:51;97073.19;;;18.77;100.00
4814;BME280;15375;48.540;9.268;2022-08-19T10:04:17;97072.22;;;18.80;100.00
4814;BME280;15375;48.540;9.268;2022-08-19T10:06:42;97083.16;;;18.89;100.00
4814;BME280;15375;48.540;9.268;2022-08-19T10:09:10;97090.13;;;18.84;100.00
4814;BME280;15375;48.540;9.268;2022-08-19T10:11:38;97087.28;;;18.79;100.00
4814;BME280;15375;48.540;9.268;2022-08-19T10:14:04;97084.06;;;18.80;100.00
4814;BME280;15375;48.540;9.268;2022-08-19T10:16:34;97079.25;;;18.81;100.00
4814;BME280;15375;48.540;9.268;2022-08-19T10:19:00;97067.19;;;18.64;100.00
4814;BME280;15375;48.540;9.268;2022-08-19T10:21:29;97081.00;;;18.64;100.00
4814;BME280;15375;48.540;9.268;2022-08-19T10:23:58;97066.41;;;18.48;100.00
4814;BME280;15375;48.540;9.268;2022-08-19T10:26:29;97063.66;;;18.48;100.00
4814;BME280;15375;48.540;9.268;2022-08-19T10:28:56;97074.63;;;18.58;100.00
4814;BME280;15375;48.540;9.268;2022-08-19T10:31:28;97065.75;;;18.54;100.00
4814;BME280;15375;48.540;9.268;2022-08-19T10:33:55;97083.47;;;18.76;100.00
4814;BME280;15375;48.540;9.268;2022-08-19T10:36:29;97086.88;;;19.00;100.00
4814;BME280;15375;48.540;9.268;2022-08-19T10:39:06;97075.53;;;19.48;100.00
4814;BME280;15375;48.540;9.268;2022-08-19T10:41:34;97084.28;;;19.46;100.00
4814;BME280;15375;48.540;9.268;2022-08-19T10:44:03;97085.78;;;19.27;100.00
4814;BME280;15375;48.540;9.268;2022-08-19T10:46:37;97094.94;;;19.19;100.00
4814;BME280;15375;48.540;9.268;2022-08-19T10:49:04;97077.34;;;19.01;100.00
4814;BME280;15375;48.540;9.268;2022-08-19T10:51:31;97092.78;;;18.93;100.00
4814;BME280;15375;48.540;9.268;2022-08-19T10:54:15;97082.25;;;18.77;100.00
4814;BME280;15375;48.540;9.268;2022-08-19T10:56:40;97085.75;;;18.92;100.00
4814;BME280;15375;48.540;9.268;2022-08-19T10:59:19;97091.06;;;19.10;100.00
4814;BME280;15375;48.540;9.268;2022-08-19T11:01:45;97088.88;;;19.00;100.00
4814;BME280;15375;48.540;9.268;2022-08-19T11:04:11;97076.06;;;18.68;100.00
4814;BME280;15375;48.540;9.268;2022-08-19T11:06:40;97077.47;;;18.63;100.00
4814;BME280;15375;48.540;9.268;2022-08-19T11:09:06;97069.19;;;18.63;100.00
4814;BME280;15375;48.540;9.268;2022-08-19T11:11:32;97068.22;;;18.81;100.00
4814;BME280;15375;48.540;9.268;2022-08-19T11:13:58;97064.59;;;18.89;100.00
4814;BME280;15375;48.540;9.268;2022-08-19T11:16:24;97076.69;;;18.92;100.00
4814;BME280;15375;48.540;9.268;2022-08-19T11:18:54;97068.97;;;18.81;100.00
4814;BME280;15375;48.540;9.268;2022-08-19T11:21:31;97079.28;;;18.95;100.00
4814;BME280;15375;48.540;9.268;2022-08-19T11:23:59;97081.81;;;18.99;100.00
4814;BME280;15375;48.540;9.268;2022-08-19T11:26:28;97062.09;;;18.91;100.00
4814;BME280;15375;48.540;9.268;2022-08-19T11:28:53;97073.34;;;19.02;100.00
4814;BME280;15375;48.540;9.268;2022-08-19T11:31:25;97081.69;;;19.23;100.00
4814;BME280;15375;48.540;9.268;2022-08-19T11:33:51;97085.66;;;19.71;100.00
4814;BME280;15375;48.540;9.268;2022-08-19T11:36:20;97101.06;;;19.98;100.00
4814;BME280;15375;48.540;9.268;2022-08-19T11:38:47;97096.66;;;19.86;100.00
4814;BME280;15375;48.540;9.268;2022-08-19T11:41:14;97095.03;;;19.79;100.00
4814;BME280;15375;48.540;9.268;2022-08-19T11:43:40;97093.53;;;19.78;100.00
4814;BME280;15375;48.540;9.268;2022-08-19T11:46:12;97078.50;;;19.64;100.00
4814;BME280;15375;48.540;9.268;2022-08-19T11:48:38;97092.63;;;19.87;100.00
4814;BME280;15375;48.540;9.268;2022-08-19T11:51:07;97103.41;;;20.05;100.00
4814;BME280;15375;48.540;9.268;2022-08-19T11:53:35;97093.50;;;20.18;100.00
4814;BME280;15375;48.540;9.268;2022-08-19T11:56:02;97089.84;;;20.27;100.00
4814;BME280;15375;48.540;9.268;2022-08-19T11:58:28;97091.94;;;19.92;100.00
4814;BME280;15375;48.540;9.268;2022-08-19T12:00:54;97081.91;;;19.74;100.00
4814;BME280;15375;48.540;9.268;2022-08-19T12:03:19;97067.69;;;19.46;100.00
4814;BME280;15375;48.540;9.268;2022-08-19T12:05:45;97051.59;;;19.10;100.00
4814;BME280;15375;48.540;9.268;2022-08-19T12:08:12;97098.38;;;19.28;100.00
4814;BME280;15375;48.540;9.268;2022-08-19T12:10:41;97081.16;;;19.04;100.00
4814;BME280;15375;48.540;9.268;2022-08-19T12:13:07;97067.63;;;18.91;100.00
4814;BME280;15375;48.540;9.268;2022-08-19T12:15:37;97066.81;;;18.85;100.00
4814;BME280;15375;48.540;9.268;2022-08-19T12:18:05;97073.66;;;18.90;100.00
4814;BME280;15375;48.540;9.268;2022-08-19T12:20:34;97075.16;;;18.91;100.00
4814;BME280;15375;48.540;9.268;2022-08-19T12:23:00;97077.63;;;18.89;100.00
4814;BME280;15375;48.540;9.268;2022-08-19T12:25:25;97075.81;;;19.00;100.00
4814;BME280;15375;48.540;9.268;2022-08-19T12:27:51;97067.59;;;19.06;100.00
4814;BME280;15375;48.540;9.268;2022-08-19T12:30:16;97075.53;;;19.13;100.00
4814;BME280;15375;48.540;9.268;2022-08-19T12:32:42;97070.25;;;19.15;100.00
4814;BME280;15375;48.540;9.268;2022-08-19T12:35:08;97073.50;;;19.13;100.00
4814;BME280;15375;48.540;9.268;2022-08-19T12:37:36;97071.94;;;19.27;100.00
4814;BME280;15375;48.540;9.268;2022-08-19T12:40:03;97075.75;;;19.30;100.00
4814;BME280;15375;48.540;9.268;2022-08-19T12:42:28;97069.50;;;19.15;100.00
4814;BME280;15375;48.540;9.268;2022-08-19T12:44:55;97069.69;;;19.11;100.00
4814;BME280;15375;48.540;9.268;2022-08-19T12:47:20;97074.06;;;19.18;100.00
4814;BME280;15375;48.540;9.268;2022-08-19T12:49:46;97072.97;;;19.30;100.00
4814;BME280;15375;48.540;9.268;2022-08-19T12:52:12;97068.22;;;19.30;100.00
4814;BME280;15375;48.540;9.268;2022-08-19T12:54:41;97070.97;;;19.45;100.00
4814;BME280;15375;48.540;9.268;2022-08-19T12:57:07;97092.78;;;19.78;100.00
4814;BME280;15375;48.540;9.268;2022-08-19T12:59:37;97085.94;;;19.73;100.00
4814;BME280;15375;48.540;9.268;2022-08-19T13:02:06;97090.88;;;19.69;100.00
4814;BME280;15375;48.540;9.268;2022-08-19T13:04:33;97093.03;;;19.59;100.00
4814;BME280;15375;48.540;9.268;2022-08-19T13:07:02;97089.00;;;19.40;100.00
4814;BME280;15375;48.540;9.268;2022-08-19T13:09:27;97089.56;;;19.44;100.00
4814;BME280;15375;48.540;9.268;2022-08-19T13:11:52;97087.00;;;19.41;100.00